Time;durP1;ratioP1;P1;durP2;ratioP2;P2;SDS_P1;SDS_P2;PMS_P1;PMS_P2;Temp;Humidity;BMP_temperature;BMP_pressure;BME280_temperature;BME280_humidity;BME280_pressure;Samples;Min_cycle;Max_cycle;Signal;HPM_P1;HPM_P2
2023/03/13 00:00:07;;;;;;;3.30;1.20;;;18.90;56.40;;;;;;5053242;28;20427;-61
2023/03/13 00:02:34;;;;;;;3.67;1.05;;;18.90;56.50;;;;;;5070987;28;20125;-61
2023/03/13 00:05:02;;;;;;;3.70;0.68;;;18.80;56.50;;;;;;5068206;28;20067;-61
2023/03/13 00:07:30;;;;;;;3.15;0.63;;;18.80;56.60;;;;;;5065026;28;20056;-61
2023/03/13 00:09:57;;;;;;;3.28;1.02;;;18.70;56.60;;;;;;5052630;28;20052;-61
2023/03/13 00:12:24;;;;;;;2.75;1.42;;;18.70;56.60;;;;;;5052169;28;20055;-62
2023/03/13 00:14:51;;;;;;;3.40;0.90;;;18.70;56.70;;;;;;5070244;28;20059;-61
2023/03/13 00:17:18;;;;;;;4.85;0.88;;;18.70;57.50;;;;;;5070913;28;20048;-61
2023/03/13 00:19:45;;;;;;;3.72;0.50;;;18.70;56.80;;;;;;5053094;28;20040;-61
2023/03/13 00:22:12;;;;;;;2.85;1.00;;;18.70;56.70;;;;;;5069844;28;20693;-61
2023/03/13 00:24:40;;;;;;;2.97;0.93;;;18.70;56.60;;;;;;5052028;28;20049;-61
2023/03/13 00:27:07;;;;;;;2.42;0.65;;;18.70;56.60;;;;;;5070427;28;20055;-62
2023/03/13 00:29:35;;;;;;;3.30;0.88;;;18.80;56.60;;;;;;5052041;28;20054;-62
2023/03/13 00:32:02;;;;;;;2.92;0.55;;;18.80;56.50;;;;;;5052502;28;20052;-62
2023/03/13 00:34:29;;;;;;;3.72;0.82;;;18.90;56.50;;;;;;5069785;28;20118;-62
2023/03/13 00:36:56;;;;;;;3.47;0.90;;;18.90;56.40;;;;;;5069669;28;20052;-62
2023/03/13 00:39:23;;;;;;;3.47;0.95;;;19.00;56.40;;;;;;5070736;28;20053;-61
2023/03/13 00:41:51;;;;;;;4.18;1.42;;;19.00;56.30;;;;;;5052593;28;20059;-61
2023/03/13 00:44:18;;;;;;;3.75;1.13;;;19.10;56.30;;;;;;5069801;28;20072;-61
2023/03/13 00:46:45;;;;;;;3.63;0.65;;;19.10;56.10;;;;;;5070410;28;20072;-61
2023/03/13 00:49:12;;;;;;;4.07;1.25;;;19.20;56.10;;;;;;5069814;28;20058;-61
2023/03/13 00:51:39;;;;;;;3.10;0.93;;;19.30;56.00;;;;;;5051490;28;20049;-61
2023/03/13 00:54:06;;;;;;;3.55;1.20;;;19.30;55.90;;;;;;5052101;28;20474;-60
2023/03/13 00:56:33;;;;;;;3.28;0.82;;;19.40;55.80;;;;;;5070095;28;20049;-61
2023/03/13 00:59:01;;;;;;;3.95;1.05;;;19.40;55.80;;;;;;5069962;28;20040;-61
2023/03/13 01:01:30;;;;;;;4.57;1.13;;;19.40;55.80;;;;;;5051265;28;20094;-61
2023/03/13 01:04:00;;;;;;;4.07;0.75;;;19.40;55.80;;;;;;5069534;28;20052;-61
2023/03/13 01:06:27;;;;;;;;;;;19.40;55.80;;;;;;5052355;28;20469;-61
2023/03/13 01:08:54;;;;;;;4.53;0.90;;;19.40;55.90;;;;;;5070267;28;19927;-61
2023/03/13 01:11:24;;;;;;;2.25;0.75;;;19.40;55.90;;;;;;5049400;28;20048;-61
2023/03/13 01:13:54;;;;;;;2.90;0.98;;;19.30;55.90;;;;;;5069558;28;20515;-61
2023/03/13 01:16:23;;;;;;;3.17;0.70;;;19.30;56.00;;;;;;5069773;28;20412;-61
2023/03/13 01:18:52;;;;;;;3.45;0.52;;;19.30;56.00;;;;;;5051868;28;20053;-61
2023/03/13 01:21:20;;;;;;;3.80;1.10;;;19.20;56.10;;;;;;5051023;28;20064;-61
2023/03/13 01:23:47;;;;;;;2.53;1.30;;;19.20;56.10;;;;;;5049275;28;20199;-61
2023/03/13 01:26:15;;;;;;;4.10;0.63;;;19.10;56.10;;;;;;5051599;28;20056;-61
2023/03/13 01:28:42;;;;;;;2.78;0.70;;;19.10;56.20;;;;;;5051886;28;20109;-61
2023/03/13 01:31:13;;;;;;;3.08;0.80;;;19.10;56.20;;;;;;5068828;28;20056;-60
2023/03/13 01:33:41;;;;;;;4.05;1.27;;;19.10;56.30;;;;;;5051562;28;20060;-61
2023/03/13 01:36:09;;;;;;;3.13;1.17;;;19.00;56.30;;;;;;5051503;28;20048;-61
2023/03/13 01:38:36;;;;;;;3.83;1.30;;;19.00;56.40;;;;;;5069027;28;20040;-61
2023/03/13 01:41:04;;;;;;;4.10;0.98;;;19.00;56.50;;;;;;5069592;28;20497;-61
2023/03/13 01:43:33;;;;;;;3.25;0.63;;;18.90;56.50;;;;;;5051607;28;20041;-61
2023/03/13 01:46:12;;;;;;;3.67;1.27;;;18.80;56.50;;;;;;5051005;28;20521;-62
2023/03/13 01:48:47;;;;;;;2.78;1.02;;;18.80;56.60;;;;;;5051741;28;20083;-61
2023/03/13 01:51:20;;;;;;;2.65;0.45;;;18.80;56.70;;;;;;5050740;28;20060;-62
2023/03/13 01:53:51;;;;;;;3.85;1.30;;;18.70;56.70;;;;;;5067592;28;20488;-62
2023/03/13 01:56:24;;;;;;;2.00;0.52;;;18.70;56.70;;;;;;5035546;28;20051;-61
2023/03/13 01:58:52;;;;;;;3.38;1.20;;;18.70;56.80;;;;;;5051450;28;20048;-61
2023/03/13 02:01:20;;;;;;;3.05;1.05;;;18.70;56.80;;;;;;5051760;28;20488;-61
2023/03/13 02:03:49;;;;;;;3.92;0.80;;;18.60;57.60;;;;;;5054880;28;20076;-61
2023/03/13 02:06:17;;;;;;;;;;;18.70;56.90;;;;;;5051188;28;20048;-61
2023/03/13 02:08:49;;;;;;;3.67;0.93;;;18.70;56.80;;;;;;5051107;28;20300;-61
2023/03/13 02:11:28;;;;;;;3.17;0.73;;;18.70;56.80;;;;;;5068926;28;20053;-62
2023/03/13 02:13:56;;;;;;;3.15;0.70;;;18.70;56.80;;;;;;5051641;28;20048;-61
2023/03/13 02:16:24;;;;;;;4.32;0.75;;;18.80;56.80;;;;;;5050650;28;20045;-61
2023/03/13 02:18:52;;;;;;;3.65;0.90;;;18.70;56.60;;;;;;5068664;28;20123;-61
2023/03/13 02:21:32;;;;;;;3.55;0.43;;;18.80;56.70;;;;;;5049985;28;20060;-61
2023/03/13 02:24:04;;;;;;;5.80;0.73;;;18.90;56.60;;;;;;5059426;28;20041;-61
2023/03/13 02:26:33;;;;;;;3.08;0.70;;;18.90;56.50;;;;;;5070309;28;20101;-61
2023/03/13 02:29:00;;;;;;;3.63;1.13;;;19.00;56.50;;;;;;5072544;28;20056;-61
2023/03/13 02:31:27;;;;;;;4.22;0.90;;;19.00;56.30;;;;;;5072980;28;20090;-62
2023/03/13 02:33:55;;;;;;;2.42;0.80;;;19.10;56.30;;;;;;5054442;28;20060;-61
2023/03/13 02:36:23;;;;;;;4.57;0.77;;;19.20;56.20;;;;;;5053184;28;20084;-61
2023/03/13 02:38:55;;;;;;;3.55;0.80;;;19.30;56.20;;;;;;5050848;28;20059;-62
2023/03/13 02:41:24;;;;;;;2.53;0.85;;;19.30;56.00;;;;;;5066247;28;20067;-62
2023/03/13 02:43:52;;;;;;;3.80;0.77;;;19.40;56.00;;;;;;5052213;28;20048;-60
2023/03/13 02:46:23;;;;;;;3.17;0.55;;;19.40;55.90;;;;;;5053195;28;20060;-61
2023/03/13 02:48:52;;;;;;;3.03;1.42;;;19.50;55.90;;;;;;5075599;28;20044;-61
2023/03/13 02:51:25;;;;;;;2.83;0.52;;;19.40;55.80;;;;;;5074324;28;20052;-61
2023/03/13 02:53:56;;;;;;;3.53;0.68;;;19.40;55.80;;;;;;5059714;28;20072;-61
2023/03/13 02:56:25;;;;;;;4.93;0.93;;;19.50;55.90;;;;;;5070287;28;20084;-61
2023/03/13 02:58:54;;;;;;;3.42;0.82;;;19.50;56.00;;;;;;5072716;28;20049;-61
2023/03/13 03:01:20;;;;;;;3.40;0.73;;;19.40;56.00;;;;;;5049669;28;20049;-61
2023/03/13 03:03:47;;;;;;;3.47;1.17;;;19.40;56.00;;;;;;5052459;28;20049;-61
2023/03/13 03:06:14;;;;;;;3.25;0.73;;;19.30;56.00;;;;;;5067017;28;20062;-61
2023/03/13 03:08:42;;;;;;;3.67;0.52;;;19.30;56.10;;;;;;5050352;28;20523;-61
2023/03/13 03:11:10;;;;;;;3.15;0.80;;;19.30;56.20;;;;;;5052008;28;20053;-61
2023/03/13 03:13:37;;;;;;;2.17;1.05;;;19.30;56.30;;;;;;5052275;28;20095;-61
2023/03/13 03:16:10;;;;;;;3.58;0.88;;;19.20;56.40;;;;;;5051880;28;20065;-61
2023/03/13 03:18:38;;;;;;;2.90;0.70;;;19.20;56.40;;;;;;5034361;28;20482;-62
2023/03/13 03:21:06;;;;;;;2.40;1.02;;;19.10;56.40;;;;;;5034015;28;20071;-61
2023/03/13 03:23:34;;;;;;;2.33;0.45;;;19.10;56.50;;;;;;5071264;28;20127;-61
2023/03/13 03:26:01;;;;;;;3.67;0.63;;;19.00;56.50;;;;;;5070921;28;20485;-60
2023/03/13 03:28:28;;;;;;;3.00;0.70;;;19.00;56.60;;;;;;5053567;28;20056;-61
2023/03/13 03:30:55;;;;;;;3.30;0.80;;;19.00;56.60;;;;;;5071740;28;20044;-61
2023/03/13 03:33:24;;;;;;;2.03;0.52;;;18.90;56.70;;;;;;5071851;28;20048;-61
2023/03/13 03:35:51;;;;;;;4.05;0.55;;;18.90;56.70;;;;;;5052905;28;20064;-61
2023/03/13 03:38:18;;;;;;;2.53;0.43;;;18.90;56.80;;;;;;5053826;28;20095;-61
2023/03/13 03:40:45;;;;;;;3.40;0.70;;;18.80;56.90;;;;;;5052593;28;20056;-61
2023/03/13 03:43:12;;;;;;;4.10;0.90;;;18.80;56.90;;;;;;5091718;28;20044;-61
2023/03/13 03:45:39;;;;;;;2.78;0.52;;;18.70;56.90;;;;;;5065155;28;20052;-61
2023/03/13 03:48:06;;;;;;;3.00;0.45;;;18.70;57.00;;;;;;5071248;28;20057;-61
2023/03/13 03:50:35;;;;;;;3.33;0.93;;;18.70;57.10;;;;;;5053495;28;20068;-61
2023/03/13 03:53:02;;;;;;;3.20;0.90;;;18.70;57.10;;;;;;5053094;28;20049;-61
2023/03/13 03:55:29;;;;;;;3.97;1.20;;;18.70;57.10;;;;;;5071477;28;20048;-61
2023/03/13 03:57:56;;;;;;;4.40;0.80;;;18.60;57.10;;;;;;5071274;28;20052;-61
2023/03/13 04:00:24;;;;;;;3.05;0.45;;;18.70;57.10;;;;;;5067720;28;20053;-60
2023/03/13 04:02:51;;;;;;;2.38;0.65;;;18.70;57.10;;;;;;5053236;28;20420;-61
2023/03/13 04:05:18;;;;;;;2.00;0.63;;;18.70;57.10;;;;;;5070197;28;20508;-61
2023/03/13 04:07:46;;;;;;;2.15;0.57;;;18.80;57.10;;;;;;5053107;28;20055;-60
2023/03/13 04:10:13;;;;;;;2.55;0.50;;;18.80;57.00;;;;;;5071041;28;20394;-61
2023/03/13 04:12:40;;;;;;;2.45;0.90;;;18.80;56.90;;;;;;5051872;28;20052;-61
2023/03/13 04:15:08;;;;;;;4.28;0.88;;;18.90;56.90;;;;;;5070691;28;20052;-60
2023/03/13 04:17:35;;;;;;;2.85;0.98;;;19.00;56.90;;;;;;5070643;28;20063;-61
2023/03/13 04:20:05;;;;;;;3.08;0.50;;;19.00;56.80;;;;;;5070572;28;20417;-61
2023/03/13 04:22:32;;;;;;;;;;;19.10;56.70;;;;;;5052236;28;20096;-61
2023/03/13 04:25:00;;;;;;;3.00;1.02;;;19.20;56.80;;;;;;5069607;28;19931;-61
2023/03/13 04:27:27;;;;;;;1.90;0.95;;;19.20;56.50;;;;;;5070743;28;20060;-61
2023/03/13 04:29:54;;;;;;;2.33;0.52;;;19.30;56.50;;;;;;5070711;28;20056;-61
2023/03/13 04:32:21;;;;;;;3.22;0.85;;;19.30;56.40;;;;;;5051843;28;20055;-61
2023/03/13 04:34:48;;;;;;;3.13;1.05;;;19.40;56.40;;;;;;5032742;28;20056;-61
2023/03/13 04:37:15;;;;;;;2.22;0.70;;;19.40;56.30;;;;;;5050427;28;20068;-61
2023/03/13 04:39:42;;;;;;;2.05;0.73;;;19.40;56.30;;;;;;5033366;28;20060;-61
2023/03/13 04:42:12;;;;;;;2.65;0.43;;;19.40;56.40;;;;;;5062307;28;20055;-61
2023/03/13 04:44:39;;;;;;;2.22;0.35;;;19.40;56.40;;;;;;5069298;28;20052;-61
2023/03/13 04:47:06;;;;;;;2.33;0.63;;;19.40;56.50;;;;;;5051807;28;20048;-61
2023/03/13 04:49:33;;;;;;;2.40;0.22;;;19.40;56.50;;;;;;5051068;28;20048;-61
2023/03/13 04:52:00;;;;;;;2.13;0.82;;;19.30;56.60;;;;;;5070185;28;20044;-61
2023/03/13 04:54:27;;;;;;;1.65;0.90;;;19.30;56.70;;;;;;5070321;28;20056;-61
2023/03/13 04:56:54;;;;;;;2.30;0.50;;;19.30;56.70;;;;;;5070050;28;20063;-61
2023/03/13 04:59:23;;;;;;;2.40;0.63;;;19.20;56.80;;;;;;5041964;28;20048;-61
2023/03/13 05:01:49;;;;;;;2.88;0.32;;;19.20;56.80;;;;;;5050296;28;20079;-61
2023/03/13 05:04:16;;;;;;;2.28;0.45;;;19.10;56.90;;;;;;5051153;28;20475;-61
2023/03/13 05:06:43;;;;;;;2.33;0.80;;;19.10;57.00;;;;;;5052402;28;20052;-61
2023/03/13 05:09:10;;;;;;;1.67;0.32;;;19.10;57.10;;;;;;5069357;28;20045;-61
2023/03/13 05:11:39;;;;;;;2.00;0.43;;;19.10;57.10;;;;;;5052072;28;20080;-61
2023/03/13 05:14:08;;;;;;;2.08;0.65;;;19.00;57.10;;;;;;5058910;28;20077;-61
2023/03/13 05:16:36;;;;;;;2.28;0.50;;;19.00;57.30;;;;;;5032225;28;20459;-61
2023/03/13 05:19:03;;;;;;;2.03;0.32;;;18.90;57.30;;;;;;5050079;28;20049;-61
2023/03/13 05:21:30;;;;;;;1.90;0.65;;;18.90;57.30;;;;;;5049904;28;20493;-61
2023/03/13 05:23:57;;;;;;;1.08;0.25;;;18.90;57.40;;;;;;5055979;28;20052;-61
2023/03/13 05:26:24;;;;;;;1.85;0.60;;;18.80;57.40;;;;;;5052276;28;20060;-61
2023/03/13 05:28:51;;;;;;;1.70;0.17;;;18.80;57.50;;;;;;5051276;28;20063;-61
2023/03/13 05:31:18;;;;;;;2.80;0.73;;;18.80;57.60;;;;;;5070219;28;20048;-61
2023/03/13 05:33:46;;;;;;;1.63;0.52;;;18.70;57.60;;;;;;5070098;28;20527;-61
2023/03/13 05:36:13;;;;;;;1.58;0.40;;;18.70;57.70;;;;;;5069878;28;20057;-61
2023/03/13 05:38:40;;;;;;;1.55;0.45;;;18.70;57.70;;;;;;5069072;28;20048;-63
2023/03/13 05:41:07;;;;;;;2.55;0.93;;;18.70;57.80;;;;;;5054963;28;20048;-63
2023/03/13 05:43:34;;;;;;;1.50;0.25;;;18.70;57.80;;;;;;5067862;28;20063;-61
2023/03/13 05:46:01;;;;;;;2.30;0.60;;;18.70;57.80;;;;;;5069755;28;20044;-61
2023/03/13 05:48:28;;;;;;;1.95;0.52;;;18.70;57.80;;;;;;5069729;28;20497;-62
2023/03/13 05:50:56;;;;;;;1.25;0.55;;;18.70;57.80;;;;;;5069339;28;20056;-61
2023/03/13 05:53:23;;;;;;;2.85;0.90;;;18.80;57.80;;;;;;5040597;28;20049;-62
2023/03/13 05:55:50;;;;;;;2.17;0.80;;;18.80;57.70;;;;;;5069610;28;20048;-60
2023/03/13 05:58:17;;;;;;;1.63;0.60;;;18.90;57.70;;;;;;5061175;28;20070;-61
2023/03/13 06:00:44;;;;;;;1.52;0.60;;;18.90;57.70;;;;;;5055111;28;20049;-61
2023/03/13 06:03:11;;;;;;;1.30;0.40;;;19.00;57.70;;;;;;5054009;28;20053;-61
2023/03/13 06:05:38;;;;;;;2.08;0.75;;;19.00;57.60;;;;;;5073193;28;20053;-62
2023/03/13 06:08:07;;;;;;;1.55;0.70;;;19.10;57.50;;;;;;5073001;28;20047;-62
2023/03/13 06:10:34;;;;;;;1.98;0.98;;;19.10;57.40;;;;;;5071808;28;20048;-62
2023/03/13 06:13:01;;;;;;;1.58;0.38;;;19.20;57.40;;;;;;5072599;28;20045;-61
2023/03/13 06:15:28;;;;;;;1.75;0.60;;;19.30;57.40;;;;;;5073193;28;20052;-63
2023/03/13 06:17:55;;;;;;;1.70;0.32;;;19.30;57.20;;;;;;5073218;28;20052;-61
2023/03/13 06:20:22;;;;;;;1.40;0.68;;;19.40;57.20;;;;;;5071760;28;20053;-61
2023/03/13 06:22:49;;;;;;;1.17;0.80;;;19.50;57.30;;;;;;5055394;28;20095;-61
2023/03/13 06:25:17;;;;;;;1.88;0.35;;;19.50;57.20;;;;;;5054679;28;20052;-61
2023/03/13 06:27:44;;;;;;;1.58;0.35;;;19.50;57.30;;;;;;5054906;28;20063;-61
2023/03/13 06:30:12;;;;;;;0.77;0.22;;;19.50;57.30;;;;;;5053679;28;20052;-61
2023/03/13 06:32:39;;;;;;;1.55;0.13;;;19.50;57.40;;;;;;5053032;28;20505;-61
2023/03/13 06:35:07;;;;;;;2.22;0.32;;;19.40;57.40;;;;;;5035189;28;20106;-61
2023/03/13 06:37:34;;;;;;;1.25;0.45;;;19.40;57.60;;;;;;5034808;28;20056;-61
2023/03/13 06:40:02;;;;;;;1.40;0.75;;;19.40;57.60;;;;;;5059067;28;20524;-62
2023/03/13 06:42:31;;;;;;;1.58;0.45;;;19.30;57.70;;;;;;5053174;28;20273;-61
2023/03/13 06:44:58;;;;;;;3.25;0.32;;;19.30;57.80;;;;;;5034649;28;20049;-61
2023/03/13 06:47:25;;;;;;;0.80;0.13;;;19.30;57.90;;;;;;5034472;28;20056;-62
2023/03/13 06:49:52;;;;;;;1.45;0.35;;;19.30;58.00;;;;;;5034960;28;20417;-61
2023/03/13 06:52:18;;;;;;;1.35;0.82;;;19.20;58.10;;;;;;5052647;28;20061;-61
2023/03/13 06:54:45;;;;;;;0.70;0.13;;;19.20;58.10;;;;;;5044787;28;20052;-61
2023/03/13 06:57:12;;;;;;;1.42;0.60;;;19.10;58.20;;;;;;5039183;28;20481;-62
2023/03/13 06:59:41;;;;;;;1.48;1.27;;;19.10;58.30;;;;;;5046587;28;20057;-62
2023/03/13 07:02:10;;;;;;;1.27;0.10;;;19.10;58.50;;;;;;5071225;28;20496;-63
2023/03/13 07:04:36;;;;;;;2.03;0.63;;;19.00;58.60;;;;;;5072286;28;20124;-62
2023/03/13 07:07:03;;;;;;;0.98;0.17;;;19.00;59.40;;;;;;5072885;28;20052;-61
2023/03/13 07:09:31;;;;;;;1.63;0.70;;;19.00;58.90;;;;;;5073410;28;20052;-62
2023/03/13 07:11:58;;;;;;;0.85;0.30;;;18.90;59.00;;;;;;5074442;28;20052;-62
2023/03/13 07:14:25;;;;;;;1.50;0.45;;;18.90;59.10;;;;;;5071936;28;20067;-61
2023/03/13 07:16:54;;;;;;;1.60;0.50;;;18.90;59.20;;;;;;5071617;28;20059;-61
2023/03/13 07:19:21;;;;;;;1.80;0.50;;;18.90;59.40;;;;;;5071744;28;20056;-61
2023/03/13 07:21:48;;;;;;;1.02;0.28;;;18.80;59.50;;;;;;5053482;28;20413;-61
2023/03/13 07:24:15;;;;;;;1.33;0.50;;;18.80;59.60;;;;;;5051879;28;20099;-61
2023/03/13 07:26:42;;;;;;;1.60;0.40;;;18.80;59.70;;;;;;5069390;28;20068;-61
2023/03/13 07:29:09;;;;;;;0.95;0.13;;;18.70;59.80;;;;;;5053220;28;20493;-61
2023/03/13 07:31:38;;;;;;;1.85;0.22;;;18.70;59.90;;;;;;5052925;28;20489;-61
2023/03/13 07:34:06;;;;;;;1.42;0.40;;;18.70;60.00;;;;;;5053620;28;20131;-61
2023/03/13 07:36:34;;;;;;;1.30;0.40;;;18.70;60.00;;;;;;5071337;28;20516;-61
2023/03/13 07:39:01;;;;;;;2.28;0.70;;;18.70;60.00;;;;;;5071494;28;20052;-61
2023/03/13 07:41:28;;;;;;;2.28;0.43;;;18.70;60.00;;;;;;5052635;28;20540;-61
2023/03/13 07:43:55;;;;;;;2.28;0.60;;;18.70;60.00;;;;;;5053078;28;20041;-61
2023/03/13 07:46:22;;;;;;;1.63;0.40;;;18.70;60.00;;;;;;5070587;28;20683;-63
2023/03/13 07:48:49;;;;;;;1.30;0.43;;;18.70;60.00;;;;;;5071349;28;20048;-62
2023/03/13 07:51:19;;;;;;;1.63;0.30;;;18.80;60.00;;;;;;5053522;28;20048;-61
2023/03/13 07:53:47;;;;;;;1.58;0.50;;;18.80;60.00;;;;;;5071124;28;20044;-61
2023/03/13 07:56:16;;;;;;;2.17;0.45;;;18.90;59.90;;;;;;5053677;28;20045;-61
2023/03/13 07:58:44;;;;;;;1.58;0.32;;;18.90;59.80;;;;;;5056046;28;20063;-61
2023/03/13 08:01:14;;;;;;;0.93;0.20;;;19.00;59.70;;;;;;5070475;28;20101;-61
2023/03/13 08:03:41;;;;;;;1.38;0.32;;;19.00;59.70;;;;;;5070986;28;20048;-61
2023/03/13 08:06:10;;;;;;;0.70;0.30;;;19.10;59.70;;;;;;5053398;28;20079;-61
2023/03/13 08:08:39;;;;;;;0.80;0.40;;;19.20;59.60;;;;;;5052855;28;20052;-61
2023/03/13 08:11:07;;;;;;;1.73;0.80;;;19.30;59.50;;;;;;5070784;28;20049;-61
2023/03/13 08:13:35;;;;;;;1.65;0.93;;;19.30;59.40;;;;;;5052241;28;20059;-61
2023/03/13 08:16:03;;;;;;;1.98;0.32;;;19.40;59.40;;;;;;5070596;28;20055;-61
2023/03/13 08:18:33;;;;;;;1.67;0.30;;;19.40;59.40;;;;;;5069479;28;20523;-61
2023/03/13 08:21:02;;;;;;;1.67;0.60;;;19.40;59.40;;;;;;5070389;28;20044;-61
2023/03/13 08:23:29;;;;;;;1.15;0.32;;;19.40;59.40;;;;;;5070719;28;20478;-62
2023/03/13 08:26:02;;;;;;;1.20;0.55;;;19.40;59.50;;;;;;5070060;28;20109;-61
2023/03/13 08:28:29;;;;;;;1.70;0.77;;;19.40;59.70;;;;;;5070482;28;20063;-61
2023/03/13 08:30:56;;;;;;;1.73;0.35;;;19.40;59.70;;;;;;5051741;28;20044;-61
2023/03/13 08:33:23;;;;;;;1.83;0.43;;;19.40;59.90;;;;;;5051878;28;20045;-60
2023/03/13 08:35:50;;;;;;;1.70;0.80;;;19.30;59.90;;;;;;5070336;28;20570;-61
2023/03/13 08:38:17;;;;;;;1.83;0.25;;;19.30;60.00;;;;;;5070134;28;20532;-62
2023/03/13 08:40:44;;;;;;;1.30;0.30;;;19.30;60.00;;;;;;5051545;28;20118;-61
2023/03/13 08:43:12;;;;;;;1.70;0.50;;;19.30;60.10;;;;;;5070618;28;20065;-62
2023/03/13 08:45:39;;;;;;;1.10;0.55;;;19.20;60.20;;;;;;5070468;28;20049;-61
2023/03/13 08:48:06;;;;;;;1.27;0.40;;;19.20;60.20;;;;;;5070121;28;20051;-61
2023/03/13 08:50:34;;;;;;;1.88;0.50;;;19.10;60.30;;;;;;5070091;28;20048;-61
2023/03/13 08:53:02;;;;;;;1.90;0.70;;;19.10;60.40;;;;;;5068029;28;20041;-61
2023/03/13 08:55:29;;;;;;;2.78;0.93;;;19.10;60.40;;;;;;5046959;28;20060;-61
2023/03/13 08:57:56;;;;;;;1.80;0.65;;;19.10;60.50;;;;;;5069194;28;20041;-61
2023/03/13 09:00:25;;;;;;;1.40;0.50;;;19.10;60.60;;;;;;5069611;28;20044;-61
2023/03/13 09:02:52;;;;;;;1.63;0.38;;;19.00;60.70;;;;;;5058727;28;20057;-62
2023/03/13 09:05:19;;;;;;;2.92;1.13;;;19.00;60.70;;;;;;5049775;28;20069;-62
2023/03/13 09:07:46;;;;;;;2.13;0.60;;;19.00;60.80;;;;;;5049806;28;20063;-62
2023/03/13 09:10:13;;;;;;;1.85;1.05;;;18.90;60.90;;;;;;5069306;28;20091;-61
2023/03/13 09:12:40;;;;;;;1.08;0.22;;;18.90;60.90;;;;;;5069825;28;20045;-60
2023/03/13 09:15:09;;;;;;;0.90;0.55;;;18.90;61.00;;;;;;5068851;28;20056;-59
2023/03/13 09:17:37;;;;;;;2.35;0.52;;;18.80;61.10;;;;;;5052236;28;20063;-59
2023/03/13 09:20:05;;;;;;;0.60;0.10;;;18.80;61.20;;;;;;5069908;28;20515;-60
2023/03/13 09:22:32;;;;;;;1.25;0.50;;;18.80;61.20;;;;;;5070335;28;20052;-59
2023/03/13 09:24:58;;;;;;;1.00;0.38;;;18.80;61.30;;;;;;5069916;28;20136;-62
2023/03/13 09:27:27;;;;;;;1.60;0.43;;;18.80;61.40;;;;;;5050775;28;20055;-58
2023/03/13 09:29:54;;;;;;;1.27;0.28;;;18.80;61.40;;;;;;5069801;28;20049;-60
2023/03/13 09:32:21;;;;;;;0.90;0.25;;;18.80;61.50;;;;;;5070500;28;20417;-59
2023/03/13 09:34:49;;;;;;;1.48;0.50;;;18.70;61.50;;;;;;5056280;28;20056;-59
2023/03/13 09:37:16;;;;;;;1.05;0.30;;;18.80;61.60;;;;;;5065993;28;20049;-59
2023/03/13 09:39:43;;;;;;;0.82;0.20;;;18.70;61.50;;;;;;5054715;28;20053;-61
2023/03/13 09:42:15;;;;;;;1.30;0.60;;;18.70;61.60;;;;;;5073502;28;20047;-61
2023/03/13 09:44:48;;;;;;;2.65;0.60;;;18.80;61.70;;;;;;5055665;28;20053;-61
2023/03/13 09:47:24;;;;;;;0.75;0.45;;;18.80;61.50;;;;;;5073912;28;20071;-61
2023/03/13 09:49:56;;;;;;;1.15;0.40;;;18.90;61.50;;;;;;5072683;28;20515;-60
2023/03/13 09:52:25;;;;;;;1.58;0.65;;;18.90;61.50;;;;;;5068796;28;21516;-61
2023/03/13 09:54:56;;;;;;;1.13;0.25;;;18.90;61.40;;;;;;5047520;28;20045;-61
2023/03/13 09:57:33;;;;;;;0.95;0.35;;;19.00;61.40;;;;;;5062726;28;20052;-61
2023/03/13 10:00:08;;;;;;;1.67;0.60;;;19.10;61.30;;;;;;5055432;28;20052;-60
2023/03/13 10:02:37;;;;;;;1.23;0.47;;;19.10;61.20;;;;;;5054091;28;20048;-61
2023/03/13 10:05:12;;;;;;;1.17;0.55;;;19.20;61.20;;;;;;5073430;28;20071;-61
2023/03/13 10:07:39;;;;;;;0.60;0.13;;;19.20;61.10;;;;;;5055326;28;20052;-61
2023/03/13 10:10:14;;;;;;;1.00;0.13;;;19.30;61.10;;;;;;5072672;28;20132;-61
2023/03/13 10:12:45;;;;;;;1.65;0.57;;;19.20;61.00;;;;;;5055400;28;20052;-61
2023/03/13 10:15:29;;;;;;;1.08;0.20;;;19.30;61.10;;;;;;5054882;28;20051;-61
2023/03/13 10:18:01;;;;;;;1.10;0.30;;;19.30;61.10;;;;;;5054732;28;20049;-61
2023/03/13 10:20:35;;;;;;;1.52;0.30;;;19.40;61.20;;;;;;5054127;28;20478;-61
2023/03/13 10:23:06;;;;;;;1.58;0.57;;;19.40;61.20;;;;;;5055303;28;20048;-61
2023/03/13 10:25:34;;;;;;;2.38;0.38;;;19.40;61.20;;;;;;5072687;28;20095;-60
2023/03/13 10:28:02;;;;;;;1.80;0.32;;;19.40;61.20;;;;;;5072771;28;20076;-61
2023/03/13 10:30:31;;;;;;;0.80;0.13;;;19.50;61.30;;;;;;5054281;28;20142;-61
2023/03/13 10:33:00;;;;;;;1.83;0.80;;;19.50;61.40;;;;;;5072968;28;20047;-62
2023/03/13 10:35:35;;;;;;;2.80;0.60;;;19.40;61.30;;;;;;5053549;28;20051;-61
2023/03/13 10:38:10;;;;;;;2.15;0.55;;;19.40;61.40;;;;;;5072348;28;20072;-62
2023/03/13 10:40:37;;;;;;;1.30;0.30;;;19.40;61.40;;;;;;5054223;28;20049;-61
2023/03/13 10:43:07;;;;;;;1.75;0.25;;;19.40;61.50;;;;;;5072639;28;20047;-62
2023/03/13 10:45:37;;;;;;;2.00;0.30;;;19.40;61.50;;;;;;5072271;28;20059;-61
2023/03/13 10:48:12;;;;;;;1.23;0.82;;;19.40;61.60;;;;;;5072518;28;20048;-61
2023/03/13 10:50:42;;;;;;;1.88;0.22;;;19.30;61.60;;;;;;5066061;28;20470;-60
2023/03/13 10:53:26;;;;;;;1.25;0.22;;;19.30;61.60;;;;;;5068373;28;20052;-61
2023/03/13 10:55:55;;;;;;;1.98;0.30;;;19.30;61.70;;;;;;5068961;28;20060;-62
2023/03/13 10:58:27;;;;;;;1.50;0.32;;;19.30;61.70;;;;;;5034259;28;20421;-61
2023/03/13 11:01:14;;;;;;;3.08;0.77;;;19.30;61.70;;;;;;5038412;28;20477;-61
2023/03/13 11:03:41;;;;;;;0.90;0.22;;;19.20;61.70;;;;;;5071286;28;20127;-61
2023/03/13 11:06:24;;;;;;;1.25;0.22;;;19.20;61.70;;;;;;5072036;28;20053;-61
2023/03/13 11:08:59;;;;;;;3.30;0.90;;;19.20;61.80;;;;;;5070965;28;20064;-61
2023/03/13 11:11:29;;;;;;;1.90;0.63;;;19.20;61.90;;;;;;5055928;28;20052;-60
2023/03/13 11:14:08;;;;;;;2.38;0.82;;;19.20;61.90;;;;;;5063752;28;20492;-62
2023/03/13 11:16:44;;;;;;;2.65;0.77;;;19.20;62.00;;;;;;5074225;28;20052;-61
2023/03/13 11:19:29;;;;;;;3.25;0.32;;;19.20;62.00;;;;;;5070724;28;20127;-61
2023/03/13 11:22:07;;;;;;;1.73;0.60;;;19.10;62.00;;;;;;5072099;28;20051;-61
2023/03/13 11:24:42;;;;;;;2.67;1.00;;;19.10;62.00;;;;;;5053681;28;20115;-61
2023/03/13 11:27:18;;;;;;;1.10;0.22;;;19.10;62.10;;;;;;5090171;28;20048;-60
2023/03/13 11:29:54;;;;;;;2.20;0.77;;;19.10;62.00;;;;;;5076081;28;20048;-61
2023/03/13 11:32:26;;;;;;;2.65;0.85;;;19.10;62.10;;;;;;5071601;28;20052;-61
2023/03/13 11:34:58;;;;;;;2.35;0.32;;;19.10;62.20;;;;;;5091885;28;20058;-61
2023/03/13 11:37:31;;;;;;;1.67;0.57;;;19.10;62.20;;;;;;5087585;28;20633;-60
2023/03/13 11:40:09;;;;;;;2.38;0.32;;;19.10;62.20;;;;;;5087139;28;20048;-60
2023/03/13 11:42:52;;;;;;;3.78;0.32;;;19.10;62.20;;;;;;5070550;28;20055;-60
2023/03/13 11:45:43;;;;;;;2.53;0.88;;;19.10;62.30;;;;;;5071233;28;20048;-60
2023/03/13 11:48:21;;;;;;;1.70;0.75;;;19.10;62.30;;;;;;5071634;28;20036;-60
2023/03/13 11:50:55;;;;;;;2.67;0.68;;;19.10;62.30;;;;;;5035995;28;20053;-61
2023/03/13 11:53:40;;;;;;;1.80;0.82;;;19.10;62.30;;;;;;5053529;28;20088;-61
2023/03/13 11:56:13;;;;;;;2.55;0.50;;;19.10;62.40;;;;;;5053071;28;20056;-61
2023/03/13 11:59:13;;;;;;;1.80;0.38;;;19.10;62.30;;;;;;5069402;28;20041;-60
2023/03/13 12:01:47;;;;;;;2.33;0.65;;;19.20;62.50;;;;;;5033160;28;20057;-61
2023/03/13 12:04:22;;;;;;;3.58;0.95;;;19.10;62.30;;;;;;5050962;28;20053;-60
2023/03/13 12:06:55;;;;;;;2.25;0.63;;;19.10;62.40;;;;;;5052986;28;20062;-60
2023/03/13 12:09:28;;;;;;;3.65;0.77;;;19.20;62.40;;;;;;5051780;28;20056;-60
2023/03/13 12:12:02;;;;;;;1.95;0.70;;;19.20;63.10;;;;;;5069838;28;20044;-60
2023/03/13 12:14:36;;;;;;;2.80;0.93;;;19.20;62.50;;;;;;5069829;28;20048;-60
2023/03/13 12:17:06;;;;;;;1.75;0.60;;;19.10;62.50;;;;;;5070130;28;20616;-61
2023/03/13 12:19:36;;;;;;;;;;;19.10;62.50;;;;;;5070652;28;20044;-61
2023/03/13 12:22:13;;;;;;;2.45;0.90;;;19.10;62.50;;;;;;5070655;28;19921;-60
2023/03/13 12:24:49;;;;;;;2.42;0.63;;;19.10;62.40;;;;;;5069911;28;20052;-60
2023/03/13 12:27:21;;;;;;;1.80;0.35;;;19.10;62.50;;;;;;5070842;28;20126;-61
2023/03/13 12:29:55;;;;;;;3.20;1.00;;;19.20;62.50;;;;;;5070339;28;20083;-60
2023/03/13 12:32:29;;;;;;;2.35;0.55;;;19.20;62.50;;;;;;5052864;28;20048;-60
2023/03/13 12:35:07;;;;;;;2.50;0.85;;;19.20;62.50;;;;;;5070698;28;20055;-61
2023/03/13 12:37:40;;;;;;;2.10;0.57;;;19.20;62.50;;;;;;5068786;28;20056;-60
2023/03/13 12:40:16;;;;;;;1.73;0.63;;;19.20;62.50;;;;;;5070482;28;20048;-60
2023/03/13 12:42:49;;;;;;;2.92;0.50;;;19.20;62.50;;;;;;5070237;28;20045;-60
2023/03/13 12:45:18;;;;;;;2.53;0.65;;;19.20;62.50;;;;;;5052426;28;20056;-61
2023/03/13 12:48:11;;;;;;;3.42;0.85;;;19.20;62.60;;;;;;5064698;28;20674;-60
2023/03/13 12:50:50;;;;;;;1.77;0.60;;;19.20;62.60;;;;;;5029529;28;20049;-60
2023/03/13 12:53:37;;;;;;;2.95;1.02;;;19.20;62.60;;;;;;5069260;28;20052;-60
2023/03/13 12:56:33;;;;;;;2.42;0.93;;;19.20;62.60;;;;;;5069081;28;20055;-61
2023/03/13 12:59:04;;;;;;;2.78;0.82;;;19.20;62.60;;;;;;5070614;28;20059;-60